createdAt,value
2018-11-10T00:00:38.048Z,101310.70
2018-11-10T00:03:07.697Z,101307.87
2018-11-10T00:05:36.858Z,101302.44
2018-11-10T00:08:06.218Z,101299.05
2018-11-10T00:10:35.257Z,101283.63
2018-11-10T00:13:04.748Z,101282.45
2018-11-10T00:15:34.266Z,101273.78
2018-11-10T00:18:03.573Z,101269.22
2018-11-10T00:20:33.018Z,101267.16
2018-11-10T00:23:02.158Z,101262.92
2018-11-10T00:25:31.365Z,101256.00
2018-11-10T00:28:00.513Z,101254.98
2018-11-10T00:30:29.957Z,101257.58
2018-11-10T00:32:59.157Z,101260.19
2018-11-10T00:35:28.377Z,101257.00
2018-11-10T00:37:57.573Z,101255.19
2018-11-10T00:40:26.849Z,101249.95
2018-11-10T00:42:56.174Z,101249.09
2018-11-10T00:45:25.865Z,101245.86
2018-11-10T00:47:55.157Z,101244.24
2018-11-10T00:50:24.397Z,101239.40
2018-11-10T00:52:53.597Z,101237.59
2018-11-10T00:55:22.769Z,101231.36
2018-11-10T00:57:51.961Z,101231.13
2018-11-10T01:00:21.557Z,101228.16
2018-11-10T01:02:50.885Z,101225.21
2018-11-10T01:05:20.049Z,101221.44
2018-11-10T01:07:49.268Z,101224.82
2018-11-10T01:10:18.376Z,101229.95
2018-11-10T01:12:47.655Z,101240.80
2018-11-10T01:15:17.213Z,101237.43
2018-11-10T01:17:46.406Z,101239.78
2018-11-10T01:20:15.746Z,101234.67
2018-11-10T01:22:45.265Z,101235.47
2018-11-10T01:25:14.569Z,101234.27
2018-11-10T01:27:43.715Z,101271.03
2018-11-10T01:30:16.033Z,101236.95
2018-11-10T01:32:46.083Z,101244.80
2018-11-10T01:35:16.188Z,101247.75
2018-11-10T01:37:45.408Z,101243.73
2018-11-10T01:40:15.253Z,101249.48
2018-11-10T01:42:44.730Z,101247.59
2018-11-10T01:45:15.449Z,101247.67
2018-11-10T01:47:45.076Z,101244.75
2018-11-10T01:50:14.492Z,101241.22
2018-11-10T01:52:44.165Z,101235.31
2018-11-10T01:55:13.941Z,101230.05
2018-11-10T01:57:43.687Z,101229.57
2018-11-10T02:00:15.744Z,101228.31
2018-11-10T02:02:45.381Z,101230.28
2018-11-10T02:05:14.757Z,101232.48
2018-11-10T02:07:43.895Z,101224.52
2018-11-10T02:10:13.392Z,101238.61
2018-11-10T02:12:42.947Z,101235.06
2018-11-10T02:15:14.962Z,101236.17
2018-11-10T02:17:44.092Z,101233.48
2018-11-10T02:20:14.263Z,101228.45
2018-11-10T02:22:43.506Z,101230.42
2018-11-10T02:25:13.245Z,101222.94
2018-11-10T02:27:43.156Z,101225.86
2018-11-10T02:30:13.172Z,101221.77
2018-11-10T02:32:42.701Z,101220.24
2018-11-10T02:35:12.314Z,101223.02
2018-11-10T02:37:42.181Z,101222.55
2018-11-10T02:40:13.153Z,101220.73
2018-11-10T02:42:42.729Z,101216.65
2018-11-10T02:45:13.299Z,101215.86
2018-11-10T02:47:43.055Z,101225.98
2018-11-10T02:50:12.278Z,101218.38
2018-11-10T02:52:41.630Z,101212.69
2018-11-10T02:55:11.532Z,101214.89
2018-11-10T02:57:41.013Z,101207.89
2018-11-10T03:00:11.922Z,101200.09
2018-11-10T03:02:41.149Z,101191.17
2018-11-10T03:05:11.001Z,101191.95
2018-11-10T03:07:41.153Z,101194.14
2018-11-10T03:10:11.396Z,101200.52
2018-11-10T03:12:41.905Z,101198.75
2018-11-10T03:15:11.951Z,101195.92
2018-11-10T03:17:41.545Z,101186.20
2018-11-10T03:20:13.593Z,101183.99
2018-11-10T03:22:43.060Z,101179.19
2018-11-10T03:25:12.424Z,101183.75
2018-11-10T03:27:42.033Z,101172.97
2018-11-10T03:30:11.329Z,101168.95
2018-11-10T03:32:40.566Z,101167.28
2018-11-10T03:35:10.717Z,101167.41
2018-11-10T03:37:40.461Z,101156.23
2018-11-10T03:40:11.293Z,101152.48
2018-11-10T03:42:40.901Z,101146.19
2018-11-10T03:45:11.971Z,101139.88
2018-11-10T03:47:42.224Z,101137.50
2018-11-10T03:50:12.202Z,101138.89
2018-11-10T03:52:42.146Z,101148.73
2018-11-10T03:55:11.346Z,101153.20
2018-11-10T03:57:40.972Z,101157.47
2018-11-10T04:00:13.903Z,101163.34
2018-11-10T04:02:45.723Z,101165.80
2018-11-10T04:05:15.565Z,101166.17
2018-11-10T04:07:45.981Z,101162.17
2018-11-10T04:10:16.127Z,101156.03
2018-11-10T04:12:45.237Z,101155.96
2018-11-10T04:15:14.778Z,101151.25
2018-11-10T04:17:43.978Z,101156.13
2018-11-10T04:20:13.265Z,101158.91
2018-11-10T04:22:42.503Z,101159.95
2018-11-10T04:25:12.513Z,101159.95
2018-11-10T04:27:42.427Z,101155.81
2018-11-10T04:30:12.042Z,101168.83
2018-11-10T04:32:41.132Z,101154.90
2018-11-10T04:35:10.710Z,101146.19
2018-11-10T04:37:39.940Z,101148.86
2018-11-10T04:40:09.865Z,101144.25
2018-11-10T04:42:39.429Z,101150.36
2018-11-10T04:45:09.581Z,101143.98
2018-11-10T04:47:38.928Z,101146.05
2018-11-10T04:50:09.586Z,101144.77
2018-11-10T04:52:38.872Z,101140.23
2018-11-10T04:55:09.031Z,101147.69
2018-11-10T04:57:38.609Z,101148.02
2018-11-10T05:00:11.186Z,101144.09
2018-11-10T05:02:41.102Z,101146.35
2018-11-10T05:05:10.321Z,101140.94
2018-11-10T05:07:39.619Z,101132.81
2018-11-10T05:10:10.631Z,101128.02
2018-11-10T05:12:40.285Z,101135.47
2018-11-10T05:15:10.934Z,101127.75
2018-11-10T05:17:40.248Z,101124.55
2018-11-10T05:20:09.411Z,101128.89
2018-11-10T05:22:38.614Z,101121.42
2018-11-10T05:25:08.846Z,101118.97
2018-11-10T05:27:37.941Z,101123.83
2018-11-10T05:30:07.965Z,101126.38
2018-11-10T05:32:37.110Z,101129.20
2018-11-10T05:35:07.052Z,101136.61
2018-11-10T05:37:36.768Z,101129.14
2018-11-10T05:40:07.229Z,101125.27
2018-11-10T05:42:36.473Z,101119.67
2018-11-10T05:45:06.201Z,101122.28
2018-11-10T05:47:35.318Z,101120.23
2018-11-10T05:50:05.285Z,101122.76
2018-11-10T05:52:34.433Z,101127.95
2018-11-10T05:55:03.734Z,101132.34
2018-11-10T05:57:33.381Z,101128.58
2018-11-10T06:00:02.719Z,101131.32
2018-11-10T06:02:31.869Z,101132.19
2018-11-10T06:05:01.473Z,101128.89
2018-11-10T06:07:30.689Z,101138.77
2018-11-10T06:09:59.994Z,101135.25
2018-11-10T06:12:29.255Z,101138.55
2018-11-10T06:14:59.097Z,101136.83
2018-11-10T06:17:28.201Z,101129.66
2018-11-10T06:19:57.706Z,101131.80
2018-11-10T06:22:26.966Z,101135.64
2018-11-10T06:24:56.082Z,101141.63
2018-11-10T06:27:25.246Z,101143.34
2018-11-10T06:29:54.376Z,101148.80
2018-11-10T06:32:23.630Z,101144.95
2018-11-10T06:34:53.093Z,101141.86
2018-11-10T06:37:22.215Z,101147.44
2018-11-10T06:39:51.390Z,101148.92
2018-11-10T06:42:20.991Z,101147.98
2018-11-10T06:44:50.285Z,101156.48
2018-11-10T06:47:19.597Z,101154.83
2018-11-10T06:49:49.201Z,101153.34
2018-11-10T06:52:18.398Z,101153.81
2018-11-10T06:54:47.514Z,101145.00
2018-11-10T06:57:16.653Z,101144.27
2018-11-10T06:59:46.057Z,101140.98
2018-11-10T07:02:15.295Z,101144.27
2018-11-10T07:04:44.821Z,101155.56
2018-11-10T07:07:13.994Z,101150.73
2018-11-10T07:09:43.141Z,101147.67
2018-11-10T07:12:12.590Z,101141.06
2018-11-10T07:14:41.676Z,101133.67
2018-11-10T07:17:10.874Z,101130.30
2018-11-10T07:19:40.129Z,101133.92
2018-11-10T07:22:10.669Z,101140.83
2018-11-10T07:24:39.957Z,101137.69
2018-11-10T07:27:09.898Z,101142.95
2018-11-10T07:29:39.218Z,101150.28
2018-11-10T07:32:08.782Z,101151.84
2018-11-10T07:34:38.152Z,101155.70
2018-11-10T07:37:07.338Z,101154.92
2018-11-10T07:39:36.570Z,101151.53
2018-11-10T07:42:06.052Z,101145.30
2018-11-10T07:44:35.242Z,101140.20
2018-11-10T07:47:04.469Z,101131.94
2018-11-10T07:49:33.703Z,101135.09
2018-11-10T07:52:02.837Z,101127.95
2018-11-10T07:54:32.214Z,101128.89
2018-11-10T07:57:01.582Z,101129.92
2018-11-10T07:59:31.078Z,101131.63
2018-11-10T08:02:00.234Z,101131.48
2018-11-10T08:04:29.537Z,101134.80
2018-11-10T08:06:58.622Z,101141.70
2018-11-10T08:09:27.833Z,101144.68
2018-11-10T08:11:57.302Z,101137.77
2018-11-10T08:14:26.501Z,101137.38
2018-11-10T08:16:55.691Z,101133.59
2018-11-10T08:19:24.864Z,101129.48
2018-11-10T08:21:54.361Z,101132.58
2018-11-10T08:24:23.925Z,101129.73
2018-11-10T08:26:53.069Z,101128.70
2018-11-10T08:29:23.052Z,101136.34
2018-11-10T08:31:52.202Z,101130.84
2018-11-10T08:34:21.640Z,101128.23
2018-11-10T08:36:50.835Z,101127.37
2018-11-10T08:39:20.313Z,101123.97
2018-11-10T08:41:49.400Z,101131.78
2018-11-10T08:44:19.094Z,101131.59
2018-11-10T08:46:48.277Z,101144.11
2018-11-10T08:49:18.182Z,101141.43
2018-11-10T08:51:47.516Z,101139.75
2018-11-10T08:54:17.165Z,101131.59
2018-11-10T08:56:46.351Z,101133.28
2018-11-10T08:59:15.510Z,101133.20
2018-11-10T09:01:44.957Z,101131.42
2018-11-10T09:04:14.382Z,101128.41
2018-11-10T09:06:43.517Z,101131.95
2018-11-10T09:09:12.953Z,101131.39
2018-11-10T09:11:42.268Z,101123.44
2018-11-10T09:14:11.802Z,101130.27
2018-11-10T09:16:41.271Z,101130.52
2018-11-10T09:19:10.370Z,101126.67
2018-11-10T09:21:40.369Z,101133.20
2018-11-10T09:24:09.481Z,101132.03
2018-11-10T09:26:38.733Z,101130.99
2018-11-10T09:29:08.857Z,101135.40
2018-11-10T09:31:37.995Z,101135.02
2018-11-10T09:34:07.794Z,101131.86
2018-11-10T09:36:37.627Z,101132.77
2018-11-10T09:39:07.871Z,101127.28
2018-11-10T09:41:37.265Z,101128.45
2018-11-10T09:44:07.385Z,101124.26
2018-11-10T09:46:36.576Z,101135.06
2018-11-10T09:49:06.082Z,101131.98
2018-11-10T09:51:35.680Z,101124.52
2018-11-10T09:54:04.801Z,101126.12
2018-11-10T09:56:34.013Z,101126.45
2018-11-10T09:59:03.614Z,101128.84
2018-11-10T10:01:33.060Z,101127.20
2018-11-10T10:04:03.680Z,101128.63
2018-11-10T10:06:32.825Z,101131.81
2018-11-10T10:09:02.029Z,101136.19
2018-11-10T10:11:31.195Z,101125.55
2018-11-10T10:14:00.413Z,101128.62
2018-11-10T10:16:30.480Z,101121.62
2018-11-10T10:18:59.421Z,101124.52
2018-11-10T10:21:28.905Z,101117.69
2018-11-10T10:23:58.281Z,101120.50
2018-11-10T10:26:27.455Z,101122.14
2018-11-10T10:28:57.029Z,101122.96
2018-11-10T10:31:26.097Z,101122.56
2018-11-10T10:33:55.309Z,101119.24
2018-11-10T10:36:24.597Z,101116.27
2018-11-10T10:38:53.854Z,101088.39
2018-11-10T10:41:23.017Z,101116.83
2018-11-10T10:43:52.610Z,101115.63
2018-11-10T10:46:21.898Z,101123.30
2018-11-10T10:48:51.318Z,101122.57
2018-11-10T10:51:20.293Z,101121.18
2018-11-10T10:53:49.521Z,101118.45
2018-11-10T10:56:18.812Z,101118.73
2018-11-10T10:58:48.413Z,101122.66
2018-11-10T11:01:22.877Z,101122.91
2018-11-10T11:03:57.365Z,101118.76
2018-11-10T11:06:26.545Z,101126.92
2018-11-10T11:08:56.020Z,101130.91
2018-11-10T11:11:25.173Z,101131.33
2018-11-10T11:13:54.340Z,101129.55
2018-11-10T11:16:24.266Z,101132.31
2018-11-10T11:18:54.096Z,101128.44
2018-11-10T11:21:23.265Z,101136.38
2018-11-10T11:23:52.367Z,101135.52
2018-11-10T11:26:21.766Z,101139.20
2018-11-10T11:28:51.529Z,101139.11
2018-11-10T11:31:20.710Z,101136.55
2018-11-10T11:33:49.946Z,101144.55
2018-11-10T11:36:19.135Z,101142.99
2018-11-10T11:38:48.325Z,101148.18
2018-11-10T11:41:18.074Z,101138.08
2018-11-10T11:43:47.213Z,101131.13
2018-11-10T11:46:16.411Z,101125.17
2018-11-10T11:48:46.398Z,101124.86
2018-11-10T11:51:15.617Z,101123.19
2018-11-10T11:53:44.853Z,101120.51
2018-11-10T11:56:14.497Z,101110.50
2018-11-10T11:58:43.740Z,101113.73
2018-11-10T12:01:12.872Z,101114.60
2018-11-10T12:03:42.101Z,101108.25
2018-11-10T12:06:11.201Z,101110.36
2018-11-10T12:08:40.373Z,101113.05
2018-11-10T12:11:10.009Z,101070.72
2018-11-10T12:13:39.402Z,101105.15
2018-11-10T12:16:08.893Z,101103.81
2018-11-10T12:18:38.107Z,101107.98
2018-11-10T12:21:07.230Z,101095.27
2018-11-10T12:23:36.359Z,101097.48
2018-11-10T12:26:06.211Z,101102.66
2018-11-10T12:28:35.357Z,101093.94
2018-11-10T12:31:04.995Z,101093.77
2018-11-10T12:33:34.210Z,101101.72
2018-11-10T12:36:03.387Z,101097.31
2018-11-10T12:38:32.666Z,101093.72
2018-11-10T12:41:01.774Z,101100.55
2018-11-10T12:43:30.869Z,101093.86
2018-11-10T12:45:59.978Z,101088.53
2018-11-10T12:48:29.191Z,101086.38
2018-11-10T12:50:58.486Z,101077.95
2018-11-10T12:53:27.574Z,101079.22
2018-11-10T12:55:56.725Z,101074.90
2018-11-10T12:58:25.977Z,101077.35
2018-11-10T13:00:55.278Z,101068.20
2018-11-10T13:03:24.619Z,101068.98
2018-11-10T13:05:53.761Z,101067.51
2018-11-10T13:08:23.056Z,101062.94
2018-11-10T13:10:52.271Z,101059.56
2018-11-10T13:13:21.391Z,101058.05
2018-11-10T13:15:50.555Z,101056.42
2018-11-10T13:18:19.953Z,101059.62
2018-11-10T13:20:49.057Z,101052.23
2018-11-10T13:23:18.265Z,101040.75
2018-11-10T13:25:47.465Z,101031.99
2018-11-10T13:28:16.565Z,101030.13
2018-11-10T13:30:45.809Z,101026.42
2018-11-10T13:33:14.908Z,101024.27
2018-11-10T13:35:44.084Z,101022.80
2018-11-10T13:38:13.259Z,101023.02
2018-11-10T13:40:42.905Z,101024.70
2018-11-10T13:43:12.162Z,101031.52
2018-11-10T13:45:41.237Z,101036.31
2018-11-10T13:48:10.842Z,101039.07
2018-11-10T13:50:40.087Z,101036.00
2018-11-10T13:53:09.291Z,101039.80
2018-11-10T13:55:38.621Z,101042.30
2018-11-10T13:58:07.827Z,101039.71
2018-11-10T14:00:37.041Z,101044.92
2018-11-10T14:03:06.293Z,101044.36
2018-11-10T14:05:35.531Z,101039.12
2018-11-10T14:08:04.605Z,101038.56
2018-11-10T14:10:33.930Z,101030.06
2018-11-10T14:13:03.113Z,101030.31
2018-11-10T14:15:32.357Z,101024.16
2018-11-10T14:18:01.823Z,101032.59
2018-11-10T14:20:31.231Z,101019.22
2018-11-10T14:23:00.340Z,101026.38
2018-11-10T14:25:29.829Z,101020.78
2018-11-10T14:27:59.022Z,101016.55
2018-11-10T14:30:28.254Z,101016.00
2018-11-10T14:32:57.835Z,101019.06
2018-11-10T14:35:27.030Z,101026.52
2018-11-10T14:37:56.210Z,101027.14
2018-11-10T14:40:25.450Z,101025.36
2018-11-10T14:42:54.621Z,101028.25
2018-11-10T14:45:23.743Z,101033.46
2018-11-10T14:47:52.941Z,101033.06
2018-11-10T14:50:22.054Z,101034.88
2018-11-10T14:52:51.471Z,101033.94
2018-11-10T14:55:20.645Z,101027.33
2018-11-10T14:57:49.806Z,101029.61
2018-11-10T15:00:24.641Z,101037.16
2018-11-10T15:02:54.035Z,101045.72
2018-11-10T15:05:23.302Z,101044.86
2018-11-10T15:07:52.572Z,101044.38
2018-11-10T15:10:21.850Z,101050.44
2018-11-10T15:12:51.132Z,101058.85
2018-11-10T15:15:20.633Z,101064.03
2018-11-10T15:17:50.594Z,101071.05
2018-11-10T15:20:20.429Z,101074.12
2018-11-10T15:22:49.573Z,101083.88
2018-11-10T15:25:20.070Z,101093.30
2018-11-10T15:27:49.666Z,101084.90
2018-11-10T15:30:20.359Z,101091.96
2018-11-10T15:32:50.294Z,101091.88
2018-11-10T15:35:20.842Z,101089.22
2018-11-10T15:37:51.801Z,101084.57
2018-11-10T15:40:21.660Z,101078.05
2018-11-10T15:42:50.858Z,101077.25
2018-11-10T15:45:20.858Z,101068.66
2018-11-10T15:47:50.000Z,101067.33
2018-11-10T15:50:19.651Z,101067.97
2018-11-10T15:52:49.150Z,101077.25
2018-11-10T15:55:18.278Z,101073.38
2018-11-10T15:57:47.472Z,101079.55
2018-11-10T16:00:18.036Z,101098.58
2018-11-10T16:02:47.285Z,101104.02
2018-11-10T16:05:16.609Z,101108.04
2018-11-10T16:07:45.839Z,101112.84
2018-11-10T16:10:15.199Z,101119.04
2018-11-10T16:12:45.123Z,101128.73
2018-11-10T16:15:16.029Z,101131.47
2018-11-10T16:17:45.301Z,101135.31
2018-11-10T16:20:16.633Z,101131.32
2018-11-10T16:22:50.134Z,101130.54
2018-11-10T16:25:19.667Z,101117.77
2018-11-10T16:27:49.481Z,101124.47
2018-11-10T16:30:19.698Z,101119.81
2018-11-10T16:32:49.486Z,101119.95
2018-11-10T16:35:18.709Z,101111.70
2018-11-10T16:37:48.013Z,101115.16
2018-11-10T16:40:18.702Z,101114.07
2018-11-10T16:42:48.493Z,101117.55
2018-11-10T16:45:18.517Z,101115.66
2018-11-10T16:47:47.678Z,101101.35
2018-11-10T16:50:16.841Z,101107.31
2018-11-10T16:52:46.414Z,101096.59
2018-11-10T16:55:15.623Z,101092.36
2018-11-10T16:57:45.232Z,101089.61
2018-11-10T17:00:18.206Z,101086.38
2018-11-10T17:02:47.525Z,101083.95
2018-11-10T17:05:16.638Z,101084.94
2018-11-10T17:07:45.781Z,101089.22
2018-11-10T17:10:17.269Z,101082.04
2018-11-10T17:12:46.422Z,101073.79
2018-11-10T17:15:15.687Z,101079.45
2018-11-10T17:17:45.217Z,101073.63
2018-11-10T17:20:15.842Z,101074.09
2018-11-10T17:22:45.397Z,101079.59
2018-11-10T17:25:15.329Z,101081.09
2018-11-10T17:27:44.712Z,101087.55
2018-11-10T17:30:16.551Z,101084.63
2018-11-10T17:32:45.740Z,101084.08
2018-11-10T17:35:15.293Z,101082.34
2018-11-10T17:37:44.757Z,101075.27
2018-11-10T17:40:14.853Z,101078.64
2018-11-10T17:42:44.834Z,101080.72
2018-11-10T17:45:15.754Z,101078.59
2018-11-10T17:47:45.141Z,101077.65
2018-11-10T17:50:15.992Z,101082.36
2018-11-10T17:52:45.220Z,101089.00
2018-11-10T17:55:16.027Z,101091.43
2018-11-10T17:57:45.730Z,101097.16
2018-11-10T18:00:15.157Z,101090.16
2018-11-10T18:02:44.525Z,101090.16
2018-11-10T18:05:14.889Z,101086.45
2018-11-10T18:07:44.375Z,101086.75
2018-11-10T18:10:15.668Z,101087.86
2018-11-10T18:12:45.577Z,101081.65
2018-11-10T18:15:15.158Z,101081.26
2018-11-10T18:17:45.306Z,101083.94
2018-11-10T18:20:15.882Z,101083.87
2018-11-10T18:22:45.545Z,101090.47
2018-11-10T18:25:14.834Z,101086.06
2018-11-10T18:27:44.053Z,101098.11
2018-11-10T18:30:14.277Z,101085.67
2018-11-10T18:32:43.931Z,101082.31
2018-11-10T18:35:13.754Z,101078.04
2018-11-10T18:37:43.498Z,101081.28
2018-11-10T18:40:12.730Z,101085.21
2018-11-10T18:42:41.912Z,101088.11
2018-11-10T18:45:12.322Z,101086.13
2018-11-10T18:47:41.953Z,101093.94
2018-11-10T18:50:13.689Z,101089.23
2018-11-10T18:52:42.968Z,101086.08
2018-11-10T18:55:12.747Z,101087.80
2018-11-10T18:57:42.558Z,101091.02
2018-11-10T19:00:13.699Z,101089.20
2018-11-10T19:02:42.846Z,101090.31
2018-11-10T19:05:13.429Z,101092.98
2018-11-10T19:07:43.032Z,101100.80
2018-11-10T19:10:13.467Z,101122.81
2018-11-10T19:12:43.248Z,101122.50
2018-11-10T19:15:15.829Z,101121.63
2018-11-10T19:17:45.033Z,101125.22
2018-11-10T19:20:14.875Z,101123.98
2018-11-10T19:22:44.059Z,101120.69
2018-11-10T19:25:14.026Z,101116.64
2018-11-10T19:27:43.168Z,101111.53
2018-11-10T19:30:14.790Z,101108.25
2018-11-10T19:32:44.652Z,101118.01
2018-11-10T19:35:14.344Z,101101.00
2018-11-10T19:37:43.789Z,101105.15
2018-11-10T19:40:13.241Z,101108.16
2018-11-10T19:42:43.485Z,101105.02
2018-11-10T19:45:13.042Z,101098.23
2018-11-10T19:47:43.393Z,101067.34
2018-11-10T19:50:13.331Z,101104.63
2018-11-10T19:52:42.746Z,101100.91
2018-11-10T19:55:14.077Z,101100.61
2018-11-10T19:57:43.810Z,101092.88
2018-11-10T20:00:16.126Z,101092.48
2018-11-10T20:02:45.313Z,101099.18
2018-11-10T20:05:14.874Z,101100.52
2018-11-10T20:07:44.159Z,101103.53
2018-11-10T20:10:14.450Z,101102.75
2018-11-10T20:12:44.173Z,101105.59
2018-11-10T20:15:14.617Z,101105.45
2018-11-10T20:17:44.173Z,101108.58
2018-11-10T20:20:14.854Z,101105.95
2018-11-10T20:22:44.951Z,101110.55
2018-11-10T20:25:15.639Z,101110.72
2018-11-10T20:27:45.677Z,101108.66
2018-11-10T20:30:16.365Z,101112.75
2018-11-10T20:32:46.350Z,101115.02
2018-11-10T20:35:15.662Z,101111.33
2018-11-10T20:37:45.518Z,101112.98
2018-11-10T20:40:15.511Z,101114.77
2018-11-10T20:42:44.969Z,101115.19
2018-11-10T20:45:16.700Z,101103.14
2018-11-10T20:47:45.889Z,101106.43
2018-11-10T20:50:15.704Z,101105.01
2018-11-10T20:52:45.038Z,101103.81
2018-11-10T20:55:14.909Z,101112.95
2018-11-10T20:57:44.137Z,101112.95
2018-11-10T21:00:15.451Z,101110.36
2018-11-10T21:02:44.943Z,101113.15
2018-11-10T21:05:14.675Z,101111.28
2018-11-10T21:07:43.953Z,101118.81
2018-11-10T21:10:15.084Z,101116.89
2018-11-10T21:12:45.392Z,101108.91
2018-11-10T21:15:15.338Z,101124.33
2018-11-10T21:17:44.935Z,101122.18
2018-11-10T21:20:14.567Z,101125.25
2018-11-10T21:22:44.169Z,101130.52
2018-11-10T21:25:15.334Z,101126.53
2018-11-10T21:27:44.988Z,101123.91
2018-11-10T21:30:16.929Z,101117.05
2018-11-10T21:32:46.569Z,101116.44
2018-11-10T21:35:15.884Z,101115.74
2018-11-10T21:37:45.694Z,101121.35
2018-11-10T21:40:16.705Z,101118.84
2018-11-10T21:42:46.379Z,101110.30
2018-11-10T21:45:16.143Z,101110.05
2018-11-10T21:47:45.644Z,101111.38
2018-11-10T21:50:16.613Z,101111.94
2018-11-10T21:52:46.421Z,101107.28
2018-11-10T21:55:17.675Z,101105.77
2018-11-10T21:57:48.107Z,101110.73
2018-11-10T22:00:19.179Z,101110.98
2018-11-10T22:02:48.663Z,101113.33
2018-11-10T22:05:19.590Z,101106.67
2018-11-10T22:07:48.919Z,101110.39
2018-11-10T22:10:19.490Z,101105.51
2018-11-10T22:12:48.769Z,101116.83
2018-11-10T22:15:19.357Z,101108.53
2018-11-10T22:17:49.172Z,101108.45
2018-11-10T22:20:20.001Z,101112.16
2018-11-10T22:22:49.290Z,101111.38
2018-11-10T22:25:18.790Z,101108.31
2018-11-10T22:27:49.605Z,101103.43
2018-11-10T22:30:20.154Z,101105.64
2018-11-10T22:32:50.253Z,101099.64
2018-11-10T22:35:19.777Z,101098.69
2018-11-10T22:37:48.921Z,101112.42
2018-11-10T22:40:20.608Z,101106.59
2018-11-10T22:42:50.094Z,101107.84
2018-11-10T22:45:20.899Z,101108.84
2018-11-10T22:47:50.781Z,101111.95
2018-11-10T22:50:21.745Z,101116.86
2018-11-10T22:52:51.666Z,101119.84
2018-11-10T22:55:21.101Z,101121.74
2018-11-10T22:57:50.972Z,101119.53
2018-11-10T23:00:22.577Z,101121.63
2018-11-10T23:02:53.342Z,101128.83
2018-11-10T23:05:23.245Z,101123.61
2018-11-10T23:07:53.718Z,101124.73
2018-11-10T23:10:23.092Z,101130.89
2018-11-10T23:12:53.471Z,101129.22
2018-11-10T23:15:22.698Z,101131.75
2018-11-10T23:17:52.013Z,101126.92
2018-11-10T23:20:21.237Z,101129.60
2018-11-10T23:22:50.489Z,101110.34
2018-11-10T23:25:20.111Z,101113.09
2018-11-10T23:27:49.653Z,101108.52
2018-11-10T23:30:20.630Z,101111.20
2018-11-10T23:32:49.792Z,101105.98
2018-11-10T23:35:19.029Z,101104.00
2018-11-10T23:37:48.211Z,101098.12
2018-11-10T23:40:18.005Z,101094.10
2018-11-10T23:42:47.109Z,101091.56
2018-11-10T23:45:16.970Z,101092.47
2018-11-10T23:47:46.218Z,101094.92
2018-11-10T23:50:17.541Z,101096.78
2018-11-10T23:52:46.790Z,101091.20
2018-11-10T23:55:16.682Z,101095.39
2018-11-10T23:57:45.984Z,101090.66
